Bourbon, Indiana
Current Conditions -  °F | °C
As of 4:55 AM on Saturday 25 Oct 2014 (Local Time) from KASW Reporting Station
Overcast Overcast  
Wind Chill: 55°   Ceiling: 3500
Heat Index: 55°   Visibility: 10mi
Dew Point: 52°   Wind: 3mph
Humidity: 88%   Direction: 210°SSW
Pressure: 29.91"   Gusts: NA
Location:  41.3°N, 86.12°W
Report Text: KASW 250855Z AUTO 21003KT 10SM OVC035 13/11 A2991 RMK AO2
Loading
Personal Weather Stations






























Interactive Weather Map
Tropical Storm Tracking
New forecast layout! Learn more

10-Day Weather Forecast

Advertisements
Track Severe Weather on mobile